Time;durP1;ratioP1;P1;durP2;ratioP2;P2;SDS_P1;SDS_P2;PMS_P1;PMS_P2;Temp;Humidity;BMP_temperature;BMP_pressure;BME280_temperature;BME280_humidity;BME280_pressure;Samples;Min_cycle;Max_cycle;Signal;HPM_P1;HPM_P2
2022/04/01 00:00:20;;;;;;;8.70;8.10;;;6.50;99.90;;;;;;5005049;28;21230;-80
2022/04/01 00:02:47;;;;;;;8.93;8.33;;;6.40;99.90;;;;;;5007254;28;20640;-80
2022/04/01 00:05:14;;;;;;;10.47;9.73;;;6.70;99.90;;;;;;5003615;28;21008;-80
2022/04/01 00:07:41;;;;;;;10.53;9.73;;;6.40;99.90;;;;;;5004908;28;20719;-80
2022/04/01 00:10:09;;;;;;;11.93;11.13;;;6.70;99.90;;;;;;5007249;28;20656;-80
2022/04/01 00:12:40;;;;;;;11.13;10.33;;;6.30;99.90;;;;;;5004287;28;20635;-80
2022/04/01 00:15:09;;;;;;;11.70;10.80;;;6.60;99.90;;;;;;5004810;28;20676;-80
2022/04/01 00:17:36;;;;;;;11.00;10.30;;;6.80;99.90;;;;;;5002570;28;20758;-80
2022/04/01 00:20:03;;;;;;;11.80;11.00;;;6.50;99.90;;;;;;5005116;28;20655;-79
2022/04/01 00:22:30;;;;;;;11.93;11.13;;;6.50;99.90;;;;;;5002487;28;20648;-79
2022/04/01 00:24:57;;;;;;;12.40;11.50;;;6.60;99.90;;;;;;5007693;28;20631;-79
2022/04/01 00:27:24;;;;;;;10.57;9.80;;;6.50;99.90;;;;;;5007594;28;20636;-79
2022/04/01 00:29:51;;;;;;;13.60;12.60;;;6.70;99.90;;;;;;5005265;28;20766;-79
2022/04/01 00:32:21;;;;;;;11.37;10.53;;;6.60;99.90;;;;;;5005990;28;20673;-79
2022/04/01 00:34:49;;;;;;;12.53;11.67;;;6.70;99.90;;;;;;5006132;28;20967;-79
2022/04/01 00:37:16;;;;;;;11.47;10.67;;;6.50;99.90;;;;;;5005149;28;20660;-79
2022/04/01 00:39:43;;;;;;;12.00;11.20;;;6.70;99.90;;;;;;5006583;28;20668;-79
2022/04/01 00:42:10;;;;;;;11.33;10.53;;;6.30;99.90;;;;;;5010436;28;21905;-79
2022/04/01 00:44:38;;;;;;;13.23;12.23;;;6.60;99.90;;;;;;5005467;28;20632;-79
2022/04/01 00:47:07;;;;;;;12.47;11.57;;;6.50;99.90;;;;;;5007176;28;20619;-79
2022/04/01 00:49:35;;;;;;;12.53;11.60;;;6.10;99.90;;;;;;5002626;28;21059;-79
2022/04/01 00:52:04;;;;;;;11.83;11.03;;;6.60;99.90;;;;;;5005723;28;20631;-79
2022/04/01 00:54:31;;;;;;;11.67;10.90;;;6.70;99.90;;;;;;5004868;28;20628;-79
2022/04/01 00:56:57;;;;;;;12.40;11.50;;;6.70;99.90;;;;;;5006812;28;20640;-79
2022/04/01 00:59:25;;;;;;;11.63;10.80;;;6.50;99.90;;;;;;5006774;28;20627;-79
2022/04/01 01:01:52;;;;;;;10.80;10.10;;;6.50;99.90;;;;;;5003739;28;20632;-79
2022/04/01 01:04:20;;;;;;;10.60;9.80;;;6.60;99.90;;;;;;5007248;28;20639;-79
2022/04/01 01:06:50;;;;;;;9.80;9.20;;;6.20;99.90;;;;;;5006567;28;21113;-79
2022/04/01 01:09:18;;;;;;;10.73;10.00;;;6.40;99.90;;;;;;5003919;28;20693;-79
2022/04/01 01:11:46;;;;;;;9.73;9.10;;;6.40;99.90;;;;;;5007503;28;21184;-79
2022/04/01 01:14:14;;;;;;;10.17;9.47;;;6.60;99.90;;;;;;5005653;28;20726;-79
2022/04/01 01:16:43;;;;;;;11.60;10.80;;;6.40;99.90;;;;;;5005582;28;21146;-79
2022/04/01 01:19:13;;;;;;;10.03;9.43;;;6.50;99.90;;;;;;5006613;28;20679;-79
2022/04/01 01:21:40;;;;;;;10.90;10.10;;;5.90;99.90;;;;;;5006322;28;20969;-79
2022/04/01 01:24:11;;;;;;;9.67;9.07;;;6.20;99.90;;;;;;5005917;28;20631;-79
2022/04/01 01:26:39;;;;;;;9.97;9.37;;;6.20;99.90;;;;;;5004815;28;20682;-79
2022/04/01 01:29:07;;;;;;;9.53;8.83;;;6.40;99.90;;;;;;5008582;28;21100;-79
2022/04/01 01:31:34;;;;;;;8.37;7.83;;;6.50;99.90;;;;;;5002788;28;20653;-79
2022/04/01 01:34:02;;;;;;;9.63;9.03;;;6.60;99.90;;;;;;5007376;28;20625;-80
2022/04/01 01:36:30;;;;;;;9.20;8.60;;;6.30;99.90;;;;;;5006786;28;20639;-79
2022/04/01 01:38:57;;;;;;;10.47;9.40;;;6.20;99.90;;;;;;5006923;28;20672;-79
2022/04/01 01:41:25;;;;;;;9.40;8.77;;;6.30;99.90;;;;;;5007878;28;20667;-79
2022/04/01 01:43:54;;;;;;;9.70;9.10;;;6.30;99.90;;;;;;5004835;28;21047;-80
2022/04/01 01:46:20;;;;;;;11.40;10.53;;;6.10;99.90;;;;;;5007190;28;20693;-79
2022/04/01 01:48:47;;;;;;;9.47;8.87;;;6.10;99.90;;;;;;5008936;28;20635;-79
2022/04/01 01:56:44;;;;;;;8.67;8.17;;;6.00;99.90;;;;;;5006275;28;20599;-79
2022/04/01 01:59:12;;;;;;;9.57;8.97;;;6.20;99.90;;;;;;5004744;28;20676;-79
2022/04/01 02:01:39;;;;;;;10.30;9.50;;;6.40;99.90;;;;;;5004517;28;20646;-79
2022/04/01 02:04:06;;;;;;;10.60;9.90;;;6.20;99.90;;;;;;5005240;28;20662;-79
2022/04/01 02:06:33;;;;;;;9.70;9.00;;;6.10;99.90;;;;;;5006368;28;20619;-79
2022/04/01 02:09:00;;;;;;;10.23;9.50;;;6.30;99.90;;;;;;5009093;28;20635;-79
2022/04/01 02:11:28;;;;;;;9.97;9.33;;;6.10;99.90;;;;;;5008373;28;21249;-79
2022/04/01 02:13:55;;;;;;;9.67;9.07;;;6.20;99.90;;;;;;5009239;28;20644;-79
2022/04/01 02:16:23;;;;;;;9.20;8.67;;;6.30;99.90;;;;;;5008900;28;21013;-79
2022/04/01 02:18:51;;;;;;;10.13;9.43;;;6.20;99.90;;;;;;5012023;28;21019;-79
2022/04/01 02:21:18;;;;;;;9.20;8.40;;;6.30;99.90;;;;;;5009358;28;21062;-79
2022/04/01 02:23:47;;;;;;;9.90;9.20;;;6.40;99.90;;;;;;5011217;28;21437;-80
2022/04/01 02:26:15;;;;;;;10.47;9.77;;;6.20;99.90;;;;;;5006935;28;20631;-79
2022/04/01 02:28:42;;;;;;;9.40;8.80;;;6.20;99.90;;;;;;5010397;28;20615;-79
2022/04/01 02:31:11;;;;;;;11.20;10.40;;;6.20;99.90;;;;;;5008056;28;21205;-80
2022/04/01 02:33:39;;;;;;;10.93;10.23;;;6.20;99.90;;;;;;5008707;28;20635;-80
2022/04/01 02:36:09;;;;;;;10.10;9.23;;;6.00;99.90;;;;;;5008575;28;20636;-79
2022/04/01 02:38:36;;;;;;;10.53;9.83;;;6.20;99.90;;;;;;5007361;28;20672;-79
2022/04/01 02:41:02;;;;;;;11.17;10.37;;;6.40;99.90;;;;;;5010181;28;20651;-79
2022/04/01 02:43:29;;;;;;;11.13;10.43;;;6.30;99.90;;;;;;5007771;28;20615;-79
2022/04/01 02:45:56;;;;;;;10.80;10.10;;;6.30;99.90;;;;;;5007967;28;21033;-78
2022/04/01 02:48:22;;;;;;;12.60;11.70;;;6.20;99.90;;;;;;5010996;28;20620;-79
2022/04/01 02:50:51;;;;;;;11.53;10.83;;;6.20;99.90;;;;;;5011777;28;20660;-79
2022/04/01 02:53:17;;;;;;;12.20;11.40;;;6.00;99.90;;;;;;5007693;28;20995;-79
2022/04/01 02:55:45;;;;;;;10.80;10.10;;;6.10;99.90;;;;;;5008312;28;20645;-79
2022/04/01 02:58:13;;;;;;;12.10;11.20;;;6.30;99.90;;;;;;5008599;28;20670;-78
2022/04/01 03:00:40;;;;;;;10.63;9.90;;;6.30;99.90;;;;;;5007506;28;21220;-78
2022/04/01 03:03:08;;;;;;;12.20;11.40;;;6.30;99.90;;;;;;5007688;28;20632;-78
2022/04/01 03:05:35;;;;;;;11.60;10.80;;;6.40;99.90;;;;;;5008842;28;20643;-78
2022/04/01 03:08:05;;;;;;;11.47;10.67;;;6.30;99.90;;;;;;5009323;28;21182;-78
2022/04/01 03:10:32;;;;;;;11.20;10.40;;;6.10;99.90;;;;;;5009281;28;20663;-78
2022/04/01 03:12:59;;;;;;;11.80;10.97;;;6.00;99.90;;;;;;5006310;28;20629;-79
2022/04/01 03:15:27;;;;;;;11.27;10.57;;;6.10;99.90;;;;;;5008377;28;20973;-79
2022/04/01 03:17:54;;;;;;;10.43;9.73;;;6.40;99.90;;;;;;5006916;28;20717;-79
2022/04/01 03:20:21;;;;;;;10.40;9.70;;;6.10;99.90;;;;;;5007741;28;20695;-79
2022/04/01 03:22:47;;;;;;;10.97;10.17;;;6.30;99.90;;;;;;5010171;28;20834;-79
2022/04/01 03:25:18;;;;;;;10.77;10.17;;;6.30;99.90;;;;;;5005667;28;20693;-79
2022/04/01 03:27:45;;;;;;;10.27;9.50;;;6.10;99.90;;;;;;5007394;28;20725;-79
2022/04/01 03:30:13;;;;;;;9.77;9.17;;;6.30;99.90;;;;;;5009661;28;20659;-79
2022/04/01 03:32:40;;;;;;;9.53;8.93;;;6.20;99.90;;;;;;5009100;28;20628;-79
2022/04/01 03:35:09;;;;;;;10.53;9.90;;;6.40;99.90;;;;;;5008810;28;20626;-79
2022/04/01 03:37:36;;;;;;;9.43;8.80;;;6.40;99.90;;;;;;5006849;28;20998;-79
2022/04/01 03:40:04;;;;;;;10.07;9.37;;;6.10;99.90;;;;;;5007840;28;20663;-79
2022/04/01 03:42:33;;;;;;;9.40;8.80;;;6.30;99.90;;;;;;5007727;28;20627;-79
2022/04/01 03:45:01;;;;;;;9.83;9.23;;;5.90;99.90;;;;;;5007121;28;20639;-79
2022/04/01 03:47:39;;;;;;;9.00;8.50;;;6.10;99.90;;;;;;5011066;28;21022;-79
2022/04/01 03:50:09;;;;;;;9.40;8.80;;;6.10;99.90;;;;;;5006513;28;21042;-79
2022/04/01 03:52:37;;;;;;;9.60;9.00;;;6.10;99.90;;;;;;5005237;28;20703;-79
2022/04/01 03:55:06;;;;;;;9.47;8.87;;;5.60;99.90;;;;;;5007284;28;20628;-79
2022/04/01 03:57:38;;;;;;;10.43;9.73;;;6.10;99.90;;;;;;5008472;28;21021;-80
2022/04/01 04:00:07;;;;;;;8.53;8.03;;;5.60;99.90;;;;;;5005640;28;20694;-79
2022/04/01 04:02:35;;;;;;;9.93;9.23;;;5.80;99.90;;;;;;5003859;28;20735;-79
2022/04/01 04:05:03;;;;;;;9.23;8.63;;;6.10;99.90;;;;;;5007558;28;20639;-80
2022/04/01 04:07:31;;;;;;;9.27;8.70;;;5.90;99.90;;;;;;5006898;28;20631;-79
2022/04/01 04:09:59;;;;;;;8.70;8.10;;;5.80;99.90;;;;;;5007306;28;20720;-81
2022/04/01 04:12:30;;;;;;;8.33;7.83;;;5.70;99.90;;;;;;5008564;28;20670;-79
2022/04/01 04:14:59;;;;;;;8.70;8.10;;;5.80;99.90;;;;;;5007345;28;20634;-81
2022/04/01 04:17:35;;;;;;;7.47;7.07;;;5.70;99.90;;;;;;5008268;28;21195;-80
2022/04/01 04:20:07;;;;;;;8.80;8.30;;;5.80;99.90;;;;;;5007271;28;20770;-81
2022/04/01 04:22:48;;;;;;;7.97;7.57;;;5.80;99.90;;;;;;5007056;28;20995;-80
2022/04/01 04:25:21;;;;;;;6.77;6.37;;;5.60;99.90;;;;;;5005671;28;20635;-81
2022/04/01 04:27:55;;;;;;;8.00;7.50;;;5.80;99.90;;;;;;5005511;28;21079;-80
2022/04/01 04:30:30;;;;;;;6.93;6.53;;;5.50;99.90;;;;;;5004757;28;20659;-80
2022/04/01 04:33:04;;;;;;;7.80;7.30;;;5.70;99.90;;;;;;5007228;28;21196;-80
2022/04/01 04:35:31;;;;;;;6.73;6.33;;;5.70;99.90;;;;;;5005420;28;20624;-80
2022/04/01 04:37:59;;;;;;;7.87;7.40;;;5.60;99.90;;;;;;5008916;28;20654;-80
2022/04/01 04:40:26;;;;;;;6.13;5.83;;;5.40;99.90;;;;;;5007659;28;21208;-80
2022/04/01 04:42:54;;;;;;;7.80;7.30;;;5.70;99.90;;;;;;5008264;28;20626;-80
2022/04/01 04:45:26;;;;;;;7.20;6.80;;;5.60;99.90;;;;;;5006323;28;20667;-80
2022/04/01 04:47:53;;;;;;;6.70;6.30;;;5.20;99.90;;;;;;5007696;28;20619;-80
2022/04/01 04:50:21;;;;;;;6.93;6.53;;;5.50;99.90;;;;;;5006767;28;21206;-80
2022/04/01 04:52:50;;;;;;;7.20;6.80;;;5.60;99.90;;;;;;5006588;28;20632;-80
2022/04/01 04:55:18;;;;;;;7.40;7.00;;;5.60;99.90;;;;;;5004071;28;20638;-81
2022/04/01 04:57:45;;;;;;;7.30;6.90;;;5.50;99.90;;;;;;5010087;28;21031;-79
2022/04/01 05:00:13;;;;;;;7.30;6.90;;;5.50;99.90;;;;;;5003518;28;21213;-79
2022/04/01 05:02:53;;;;;;;7.17;6.77;;;5.70;99.90;;;;;;5006539;28;20643;-79
2022/04/01 05:05:28;;;;;;;7.53;7.07;;;5.70;99.90;;;;;;5003603;28;20635;-80
2022/04/01 05:08:07;;;;;;;7.10;6.70;;;5.50;99.90;;;;;;5006510;28;21209;-80
2022/04/01 05:10:42;;;;;;;9.03;8.33;;;5.30;99.90;;;;;;5006645;28;20655;-80
2022/04/01 05:13:15;;;;;;;9.73;9.00;;;5.40;99.90;;;;;;5004367;28;20635;-81
2022/04/01 05:15:43;;;;;;;9.83;9.13;;;5.50;99.90;;;;;;5006310;28;20650;-81
2022/04/01 05:18:14;;;;;;;6.87;6.47;;;5.50;99.90;;;;;;5005885;28;20681;-80
2022/04/01 05:20:48;;;;;;;7.50;7.10;;;5.70;99.90;;;;;;5006907;28;20726;-79
2022/04/01 05:23:17;;;;;;;7.13;6.73;;;5.20;99.90;;;;;;5004039;28;20611;-79
2022/04/01 05:25:46;;;;;;;8.40;7.80;;;5.70;99.90;;;;;;5006141;28;20623;-79
2022/04/01 05:28:22;;;;;;;7.30;6.90;;;5.70;99.90;;;;;;5006331;28;20643;-79
2022/04/01 05:30:56;;;;;;;7.00;6.60;;;5.50;99.90;;;;;;5005551;28;21288;-79
2022/04/01 05:33:28;;;;;;;8.10;7.60;;;5.50;99.90;;;;;;5007492;28;20619;-79
2022/04/01 05:35:54;;;;;;;7.63;7.20;;;5.10;99.90;;;;;;5005528;28;20624;-79
2022/04/01 05:38:23;;;;;;;7.77;7.27;;;5.60;99.90;;;;;;5006351;28;21019;-79
2022/04/01 05:40:51;;;;;;;9.37;8.67;;;5.70;99.90;;;;;;5004860;28;20655;-79
2022/04/01 05:43:18;;;;;;;9.00;8.40;;;5.60;99.90;;;;;;5008525;28;20646;-79
2022/04/01 05:45:45;;;;;;;8.27;7.77;;;5.50;99.90;;;;;;5009309;28;20723;-79
2022/04/01 05:48:12;;;;;;;9.70;8.83;;;5.30;99.90;;;;;;5009922;28;20637;-79
2022/04/01 05:50:41;;;;;;;14.63;13.23;;;5.50;99.90;;;;;;5012725;28;20778;-79
2022/04/01 05:53:09;;;;;;;13.07;12.07;;;5.40;99.90;;;;;;5010860;28;20722;-79
2022/04/01 05:55:38;;;;;;;11.50;10.60;;;5.60;99.90;;;;;;5011312;28;20623;-79
2022/04/01 05:58:06;;;;;;;10.10;9.20;;;5.60;99.90;;;;;;5008080;28;21057;-79
2022/04/01 06:00:40;;;;;;;6.53;6.13;;;5.60;99.90;;;;;;5008271;28;20794;-79
2022/04/01 06:03:46;;;;;;;7.57;7.07;;;5.50;99.90;;;;;;5012549;28;20651;-80
2022/04/01 06:06:22;;;;;;;5.90;5.60;;;5.40;99.90;;;;;;5014768;28;20611;-79
2022/04/01 06:08:58;;;;;;;5.83;5.53;;;5.50;99.90;;;;;;5014026;28;20618;-80
2022/04/01 06:11:36;;;;;;;6.40;6.00;;;5.70;99.90;;;;;;5005344;28;21258;-81
2022/04/01 06:14:12;;;;;;;5.50;5.20;;;5.40;99.90;;;;;;5009130;28;20623;-80
2022/04/01 06:16:45;;;;;;;5.47;5.17;;;5.50;99.90;;;;;;5009803;28;20666;-80
2022/04/01 06:19:22;;;;;;;6.70;6.30;;;5.60;99.90;;;;;;5011990;28;20647;-80
2022/04/01 06:22:03;;;;;;;5.60;5.30;;;5.60;99.90;;;;;;5012536;28;20619;-80
2022/04/01 06:24:40;;;;;;;5.40;5.10;;;5.70;99.90;;;;;;5010543;28;20717;-80
2022/04/01 06:27:08;;;;;;;5.77;5.43;;;5.50;99.90;;;;;;5008812;28;20658;-80
2022/04/01 06:29:37;;;;;;;5.07;4.67;;;5.60;99.90;;;;;;5006140;28;20651;-80
2022/04/01 06:32:07;;;;;;;5.57;5.27;;;5.70;99.90;;;;;;5009149;28;20723;-80
2022/04/01 06:34:59;;;;;;;4.60;4.30;;;5.70;99.90;;;;;;5007043;28;20650;-80
2022/04/01 06:37:29;;;;;;;4.77;4.47;;;5.30;99.90;;;;;;5005891;28;20623;-80
2022/04/01 06:40:04;;;;;;;5.03;4.73;;;5.80;99.90;;;;;;5009185;28;20675;-80
2022/04/01 06:42:32;;;;;;;5.10;4.80;;;5.70;99.90;;;;;;5011445;28;21216;-80
2022/04/01 06:45:00;;;;;;;4.93;4.63;;;5.50;99.90;;;;;;5010574;28;20709;-80
2022/04/01 06:47:26;;;;;;;5.87;5.47;;;5.70;99.90;;;;;;5005202;28;20619;-80
2022/04/01 06:49:53;;;;;;;4.93;4.63;;;5.60;99.90;;;;;;5009374;28;20739;-80
2022/04/01 06:52:20;;;;;;;5.73;5.40;;;5.60;99.90;;;;;;5012393;28;20782;-80
2022/04/01 06:54:48;;;;;;;5.73;5.43;;;5.40;99.90;;;;;;5010868;28;20628;-79
2022/04/01 06:57:15;;;;;;;5.60;5.30;;;5.60;99.90;;;;;;5008334;28;21081;-80
2022/04/01 06:59:42;;;;;;;6.10;5.73;;;5.10;99.90;;;;;;5007577;28;20694;-80
2022/04/01 07:02:09;;;;;;;6.73;6.23;;;5.60;99.90;;;;;;5012256;28;20640;-80
2022/04/01 07:04:35;;;;;;;6.30;5.90;;;5.80;99.90;;;;;;5009757;28;20646;-80
2022/04/01 07:07:03;;;;;;;6.87;6.47;;;5.80;99.90;;;;;;5011997;28;20627;-80
2022/04/01 07:09:30;;;;;;;5.87;5.57;;;5.50;99.90;;;;;;5009641;28;20635;-80
2022/04/01 07:12:01;;;;;;;6.57;6.17;;;5.70;99.90;;;;;;5013703;28;20643;-80
2022/04/01 07:14:28;;;;;;;6.53;6.17;;;5.70;99.90;;;;;;5013376;28;21178;-80
2022/04/01 07:16:55;;;;;;;6.53;6.13;;;5.50;99.90;;;;;;5010227;28;20646;-80
2022/04/01 07:19:21;;;;;;;6.27;5.87;;;5.70;99.90;;;;;;5009432;28;20957;-80
2022/04/01 07:21:48;;;;;;;6.87;6.47;;;5.70;99.90;;;;;;5010237;28;20623;-80
2022/04/01 07:24:15;;;;;;;8.00;7.40;;;5.60;99.90;;;;;;5007487;28;20627;-80
2022/04/01 07:26:43;;;;;;;7.60;6.70;;;5.70;99.90;;;;;;5011178;28;20636;-80
2022/04/01 07:29:11;;;;;;;6.93;6.53;;;5.10;99.90;;;;;;5009313;28;20707;-80
2022/04/01 07:34:35;;;;;;;6.97;6.57;;;5.60;99.90;;;;;;5007029;28;20615;-81
2022/04/01 07:37:02;;;;;;;7.33;6.93;;;5.90;99.90;;;;;;5007605;28;20972;-80
2022/04/01 07:39:29;;;;;;;7.53;7.13;;;5.40;99.90;;;;;;5010334;28;20998;-80
2022/04/01 07:41:56;;;;;;;7.70;7.30;;;5.80;99.90;;;;;;4999479;28;20635;-80
2022/04/01 07:44:25;;;;;;;7.33;6.93;;;5.90;99.90;;;;;;5005333;28;20624;-80
2022/04/01 07:46:53;;;;;;;6.97;6.47;;;5.80;99.90;;;;;;5008261;28;20627;-80
2022/04/01 07:49:20;;;;;;;6.40;6.00;;;5.70;99.90;;;;;;5010137;28;20687;-79
2022/04/01 07:51:47;;;;;;;5.20;4.80;;;5.50;99.90;;;;;;5009135;28;21078;-81
2022/04/01 07:54:14;;;;;;;5.87;5.47;;;5.50;99.90;;;;;;5007142;28;20642;-80
2022/04/01 07:56:42;;;;;;;6.10;5.70;;;5.80;99.90;;;;;;5009731;28;20634;-80
2022/04/01 07:59:09;;;;;;;6.60;6.20;;;5.60;99.90;;;;;;5010739;28;20639;-81
2022/04/01 08:01:38;;;;;;;5.87;5.47;;;5.70;99.90;;;;;;5005985;28;20640;-80
2022/04/01 08:04:05;;;;;;;4.50;4.20;;;5.70;99.90;;;;;;5009728;28;20635;-80
2022/04/01 08:06:31;;;;;;;5.50;5.20;;;5.70;99.90;;;;;;5007637;28;20623;-80
2022/04/01 08:08:58;;;;;;;5.67;5.20;;;5.60;99.90;;;;;;5011365;28;20637;-80
2022/04/01 08:11:28;;;;;;;6.43;6.03;;;5.30;99.90;;;;;;5009091;28;21253;-80
2022/04/01 08:13:55;;;;;;;4.60;4.40;;;5.20;99.90;;;;;;5006878;28;20651;-80
2022/04/01 08:16:23;;;;;;;4.27;4.07;;;5.70;99.90;;;;;;5006496;28;20631;-80
2022/04/01 08:18:51;;;;;;;4.27;4.00;;;5.70;99.90;;;;;;5010222;28;20661;-79
2022/04/01 08:21:18;;;;;;;5.60;5.20;;;5.80;99.90;;;;;;5006902;28;21246;-79
2022/04/01 08:23:45;;;;;;;5.60;5.20;;;5.60;99.90;;;;;;5009635;28;20739;-80
2022/04/01 08:26:12;;;;;;;6.03;5.63;;;5.60;99.90;;;;;;5009314;28;20642;-79
2022/04/01 08:28:40;;;;;;;5.90;5.40;;;5.90;99.90;;;;;;5006747;28;20634;-80
2022/04/01 08:31:09;;;;;;;5.40;5.10;;;5.60;99.90;;;;;;5009112;28;20645;-79
2022/04/01 08:33:35;;;;;;;3.80;3.60;;;5.70;99.90;;;;;;5006677;28;20723;-79
2022/04/01 08:36:04;;;;;;;4.87;4.57;;;5.90;99.90;;;;;;5008017;28;20638;-79
2022/04/01 08:38:31;;;;;;;4.00;3.80;;;5.90;99.90;;;;;;5009502;28;20635;-78
2022/04/01 08:40:58;;;;;;;3.60;3.30;;;5.90;99.90;;;;;;5004908;28;21261;-78
2022/04/01 08:43:27;;;;;;;2.30;2.20;;;5.80;99.90;;;;;;5007682;28;20946;-79
2022/04/01 08:45:54;;;;;;;2.50;2.40;;;6.10;99.90;;;;;;5009238;28;20669;-78
2022/04/01 08:48:21;;;;;;;3.20;3.00;;;5.90;99.90;;;;;;5006184;28;20647;-80
2022/04/01 08:50:48;;;;;;;3.23;3.03;;;5.40;99.90;;;;;;5011528;28;20647;-80
2022/04/01 08:53:16;;;;;;;2.93;2.83;;;5.80;99.90;;;;;;5008598;28;20643;-80
2022/04/01 08:55:47;;;;;;;3.20;3.00;;;5.90;99.90;;;;;;5008786;28;20616;-80
2022/04/01 08:58:16;;;;;;;3.57;3.37;;;5.80;99.90;;;;;;5006330;28;20640;-80
2022/04/01 09:00:43;;;;;;;3.93;3.73;;;5.70;99.90;;;;;;5006807;28;20713;-80
2022/04/01 09:03:12;;;;;;;4.73;4.43;;;5.80;99.90;;;;;;5005443;28;20632;-80
2022/04/01 09:05:45;;;;;;;4.30;4.10;;;5.80;99.90;;;;;;5007073;28;21009;-81
2022/04/01 09:08:14;;;;;;;4.47;4.20;;;6.00;99.90;;;;;;5006152;28;20701;-80
2022/04/01 09:10:54;;;;;;;4.20;4.00;;;5.60;99.90;;;;;;5011215;28;20659;-79
2022/04/01 09:13:22;;;;;;;3.97;3.77;;;5.60;99.90;;;;;;5007232;28;20631;-79
2022/04/01 09:15:49;;;;;;;4.47;4.17;;;5.70;99.90;;;;;;5009402;28;21005;-79
2022/04/01 09:18:39;;;;;;;3.70;3.50;;;5.60;99.90;;;;;;5009865;28;21174;-79
2022/04/01 09:21:07;;;;;;;4.27;3.97;;;5.90;99.90;;;;;;5012170;28;20687;-80
2022/04/01 09:23:34;;;;;;;4.23;4.03;;;5.70;99.90;;;;;;5011414;28;20921;-78
2022/04/01 09:26:03;;;;;;;4.30;4.10;;;5.60;99.90;;;;;;5012172;28;20626;-78
2022/04/01 09:28:32;;;;;;;4.33;4.10;;;5.40;99.90;;;;;;5010081;28;20694;-78
2022/04/01 09:31:07;;;;;;;4.20;4.00;;;5.80;99.90;;;;;;5012139;28;21245;-79
2022/04/01 09:33:48;;;;;;;3.70;3.50;;;5.70;99.90;;;;;;5009360;28;20692;-79
2022/04/01 09:36:17;;;;;;;3.80;3.60;;;5.60;99.90;;;;;;5010365;28;20722;-78
2022/04/01 09:39:02;;;;;;;3.73;3.53;;;5.70;99.90;;;;;;5008328;28;20607;-79
2022/04/01 09:41:36;;;;;;;4.23;4.03;;;5.60;99.90;;;;;;5005731;28;20690;-78
2022/04/01 09:44:06;;;;;;;3.70;3.50;;;5.70;99.90;;;;;;5006594;28;22836;-81
2022/04/01 09:46:33;;;;;;;4.03;3.80;;;5.70;99.90;;;;;;5010089;28;20624;-79
2022/04/01 09:49:00;;;;;;;4.20;4.00;;;5.70;99.90;;;;;;5011474;28;20623;-79
2022/04/01 09:51:31;;;;;;;3.97;3.77;;;5.50;99.90;;;;;;5008320;28;20735;-79
2022/04/01 09:54:02;;;;;;;4.17;3.93;;;5.70;99.90;;;;;;5013066;28;21173;-79
2022/04/01 09:56:44;;;;;;;3.33;3.13;;;5.60;99.90;;;;;;5009831;28;20705;-79
2022/04/01 09:59:14;;;;;;;3.97;3.77;;;5.60;99.90;;;;;;5007793;28;20642;-81
2022/04/01 10:01:43;;;;;;;4.37;4.10;;;5.60;99.90;;;;;;5009099;28;21156;-79
2022/04/01 10:04:12;;;;;;;4.40;4.20;;;5.40;99.90;;;;;;5008638;28;20738;-79
2022/04/01 10:06:39;;;;;;;4.70;4.40;;;5.40;99.90;;;;;;5009340;28;20630;-79
2022/04/01 10:09:09;;;;;;;4.30;4.00;;;5.60;99.90;;;;;;5013407;28;20622;-79
2022/04/01 10:11:39;;;;;;;3.70;3.50;;;5.60;99.90;;;;;;5007921;28;20655;-79
2022/04/01 10:14:09;;;;;;;4.60;4.40;;;5.80;99.90;;;;;;5007401;28;20620;-79
2022/04/01 10:16:36;;;;;;;3.90;3.70;;;5.50;99.90;;;;;;5008899;28;21060;-79
2022/04/01 10:19:14;;;;;;;4.50;4.20;;;5.60;99.90;;;;;;5009844;28;21974;-79
2022/04/01 10:21:44;;;;;;;4.10;3.90;;;5.60;99.90;;;;;;5008191;28;20666;-79
2022/04/01 10:24:34;;;;;;;3.57;3.37;;;5.70;99.90;;;;;;5011475;28;20650;-79
2022/04/01 10:27:21;;;;;;;3.30;3.20;;;5.70;99.90;;;;;;5008250;28;20616;-80
2022/04/01 10:29:48;;;;;;;3.30;3.10;;;5.70;99.90;;;;;;5010975;28;20816;-80
2022/04/01 10:32:26;;;;;;;3.93;3.73;;;5.80;99.90;;;;;;5008682;28;21008;-80
2022/04/01 10:34:55;;;;;;;3.37;3.17;;;5.60;99.90;;;;;;5010041;28;20715;-82
2022/04/01 10:37:23;;;;;;;3.13;2.93;;;5.70;99.90;;;;;;5009452;28;21231;-82
2022/04/01 10:39:51;;;;;;;3.57;3.37;;;5.20;99.90;;;;;;5007641;28;20662;-82
2022/04/01 10:42:25;;;;;;;3.53;3.33;;;5.50;99.90;;;;;;5009657;28;20623;-82
2022/04/01 10:44:54;;;;;;;3.57;3.37;;;5.80;99.90;;;;;;5006708;28;20615;-83
2022/04/01 10:47:23;;;;;;;3.60;3.40;;;6.00;99.90;;;;;;5008809;28;21221;-80
2022/04/01 10:52:34;;;;;;;5.47;5.07;;;5.40;99.90;;;;;;5011327;28;20941;-81
2022/04/01 10:58:08;;;;;;;3.90;3.70;;;5.90;99.90;;;;;;5005369;28;20632;-82
2022/04/01 11:00:35;;;;;;;3.60;3.40;;;5.90;99.90;;;;;;5011058;28;21085;-82
2022/04/01 11:03:24;;;;;;;3.47;3.30;;;5.70;99.90;;;;;;5006544;28;20642;-81
2022/04/01 11:06:15;;;;;;;3.10;3.00;;;6.00;99.90;;;;;;5010343;28;20632;-81
2022/04/01 11:08:52;;;;;;;3.23;3.03;;;5.80;99.90;;;;;;5010099;28;20636;-81
2022/04/01 11:11:19;;;;;;;2.77;2.57;;;5.80;99.90;;;;;;5008645;28;20650;-81
2022/04/01 11:14:04;;;;;;;2.07;1.97;;;5.80;99.90;;;;;;5007478;28;21194;-81
2022/04/01 11:16:46;;;;;;;2.27;2.17;;;5.90;99.90;;;;;;5008929;28;20712;-81
2022/04/01 11:19:18;;;;;;;2.50;2.40;;;5.60;99.90;;;;;;5006372;28;21011;-82
2022/04/01 11:21:46;;;;;;;3.03;2.83;;;5.80;99.90;;;;;;5007200;28;20659;-83
2022/04/01 11:24:25;;;;;;;2.60;2.50;;;5.80;99.90;;;;;;5008957;28;20654;-81
2022/04/01 11:26:52;;;;;;;2.07;1.97;;;6.00;99.90;;;;;;5006568;28;20623;-81
2022/04/01 11:29:22;;;;;;;2.90;2.70;;;5.90;99.90;;;;;;5007420;28;20671;-81
2022/04/01 11:31:49;;;;;;;2.33;2.23;;;6.30;99.90;;;;;;5007689;28;20619;-81
2022/04/01 11:34:16;;;;;;;2.40;2.30;;;6.20;99.90;;;;;;5006041;28;20954;-81
2022/04/01 11:36:43;;;;;;;2.93;2.77;;;6.20;99.90;;;;;;5008864;28;20627;-81
2022/04/01 11:39:17;;;;;;;2.00;1.90;;;5.90;99.90;;;;;;5006421;28;20623;-81
2022/04/01 11:41:48;;;;;;;2.50;2.40;;;6.20;99.90;;;;;;5008380;28;20677;-82
2022/04/01 11:44:16;;;;;;;2.47;2.37;;;6.20;99.90;;;;;;5009921;28;20625;-81
2022/04/01 11:46:50;;;;;;;2.30;2.17;;;5.70;99.90;;;;;;5009469;28;20809;-81
2022/04/01 11:49:17;;;;;;;2.60;2.50;;;5.90;99.90;;;;;;5007876;28;21217;-81
2022/04/01 11:51:44;;;;;;;3.27;3.07;;;5.70;99.90;;;;;;5004432;28;20735;-81
2022/04/01 11:54:11;;;;;;;2.30;2.20;;;5.60;99.90;;;;;;5011089;28;20644;-82
2022/04/01 11:56:38;;;;;;;2.40;2.30;;;6.00;99.90;;;;;;5007618;28;20633;-82
2022/04/01 11:59:07;;;;;;;2.80;2.70;;;6.00;99.90;;;;;;5009139;28;20626;-82
2022/04/01 12:01:54;;;;;;;3.40;3.20;;;6.10;99.90;;;;;;5008585;28;20826;-82
2022/04/01 12:04:29;;;;;;;2.57;2.37;;;6.20;99.90;;;;;;5006303;28;20630;-83
2022/04/01 12:09:43;;;;;;;2.80;2.70;;;6.00;99.90;;;;;;5007982;28;20639;-83
2022/04/01 12:12:10;;;;;;;2.57;2.40;;;6.20;99.90;;;;;;5008220;28;21254;-82
2022/04/01 12:14:39;;;;;;;2.90;2.70;;;5.90;99.90;;;;;;5006261;28;20637;-83
2022/04/01 12:17:07;;;;;;;3.07;2.87;;;5.80;99.90;;;;;;5007754;28;20662;-83
2022/04/01 12:19:35;;;;;;;3.03;2.83;;;6.00;99.90;;;;;;5006035;28;20655;-82
2022/04/01 12:22:02;;;;;;;3.50;3.30;;;6.10;99.90;;;;;;5008174;28;20679;-82
2022/04/01 12:24:30;;;;;;;3.60;3.40;;;6.20;99.90;;;;;;5009986;28;21169;-82
2022/04/01 12:27:01;;;;;;;3.77;3.57;;;5.90;99.90;;;;;;5012654;28;21045;-82
2022/04/01 12:34:33;;;;;;;3.80;3.50;;;5.90;99.90;;;;;;4953177;28;21022;-82
2022/04/01 12:37:03;;;;;;;3.63;3.43;;;6.00;99.90;;;;;;4957454;28;20637;-81
2022/04/01 12:39:31;;;;;;;4.10;3.90;;;6.00;99.90;;;;;;4960886;28;20636;-80
2022/04/01 12:42:00;;;;;;;4.03;3.80;;;6.20;99.90;;;;;;4956038;28;21068;-81
2022/04/01 12:44:28;;;;;;;3.50;3.30;;;6.00;99.90;;;;;;4968074;28;20660;-80
2022/04/01 12:46:58;;;;;;;4.80;4.40;;;5.60;99.90;;;;;;4968707;28;20979;-81
2022/04/01 12:49:26;;;;;;;3.53;3.33;;;6.10;99.90;;;;;;4970887;28;21171;-80
2022/04/01 12:51:57;;;;;;;4.17;3.80;;;5.90;99.90;;;;;;4960490;28;21223;-81
2022/04/01 12:54:32;;;;;;;4.00;3.80;;;5.90;99.90;;;;;;4969257;28;20759;-82
2022/04/01 12:57:01;;;;;;;3.60;3.40;;;6.10;99.90;;;;;;4964314;28;20658;-82
2022/04/01 12:59:28;;;;;;;4.07;3.87;;;5.80;99.90;;;;;;4969775;28;20628;-82
2022/04/01 13:02:00;;;;;;;4.13;3.93;;;5.70;99.90;;;;;;4970380;28;21048;-81
2022/04/01 13:04:28;;;;;;;4.20;4.00;;;6.00;99.90;;;;;;4962366;28;20667;-82
2022/04/01 13:07:15;;;;;;;5.00;4.73;;;5.60;99.90;;;;;;4969209;28;20984;-82
2022/04/01 13:09:49;;;;;;;5.40;5.10;;;5.90;99.90;;;;;;4962036;28;21054;-81
2022/04/01 13:12:18;;;;;;;4.80;4.50;;;6.00;99.90;;;;;;4962569;28;20648;-81
2022/04/01 13:14:45;;;;;;;4.63;4.43;;;5.70;99.90;;;;;;4971457;28;21102;-82
2022/04/01 13:17:15;;;;;;;4.90;4.70;;;6.10;99.90;;;;;;4965080;28;20926;-80
2022/04/01 13:19:44;;;;;;;5.33;5.03;;;6.00;99.90;;;;;;4965747;28;20674;-80
2022/04/01 13:22:11;;;;;;;5.33;5.00;;;5.50;99.90;;;;;;4965816;28;21442;-80
